sensor_id;sensor_type;location;lat;lon;timestamp;P1;durP1;ratioP1;P2;durP2;ratioP2
71490;SDS011;59307;50.060;9.150;2023-08-30T00:01:46;37.10;;;6.73;;
71490;SDS011;59307;50.060;9.150;2023-08-30T00:04:12;68.87;;;7.77;;
71490;SDS011;59307;50.060;9.150;2023-08-30T00:06:37;25.98;;;7.43;;
71490;SDS011;59307;50.060;9.150;2023-08-30T00:09:02;90.03;;;7.73;;
71490;SDS011;59307;50.060;9.150;2023-08-30T00:11:28;58.57;;;7.67;;
71490;SDS011;59307;50.060;9.150;2023-08-30T00:14:01;73.15;;;7.22;;
71490;SDS011;59307;50.060;9.150;2023-08-30T00:16:27;73.10;;;8.23;;
71490;SDS011;59307;50.060;9.150;2023-08-30T00:18:52;55.60;;;6.43;;
71490;SDS011;59307;50.060;9.150;2023-08-30T00:21:17;67.17;;;7.63;;
71490;SDS011;59307;50.060;9.150;2023-08-30T00:23:43;26.47;;;7.83;;
71490;SDS011;59307;50.060;9.150;2023-08-30T00:26:08;27.83;;;6.17;;
71490;SDS011;59307;50.060;9.150;2023-08-30T00:28:33;29.10;;;6.63;;
71490;SDS011;59307;50.060;9.150;2023-08-30T00:30:58;30.53;;;6.70;;
71490;SDS011;59307;50.060;9.150;2023-08-30T00:33:23;30.20;;;7.00;;
71490;SDS011;59307;50.060;9.150;2023-08-30T00:35:55;50.40;;;6.07;;
71490;SDS011;59307;50.060;9.150;2023-08-30T00:38:20;26.35;;;5.57;;
71490;SDS011;59307;50.060;9.150;2023-08-30T00:40:45;23.60;;;5.70;;
71490;SDS011;59307;50.060;9.150;2023-08-30T00:43:10;17.40;;;4.80;;
71490;SDS011;59307;50.060;9.150;2023-08-30T00:45:35;15.53;;;4.67;;
71490;SDS011;59307;50.060;9.150;2023-08-30T00:48:03;16.90;;;4.90;;
71490;SDS011;59307;50.060;9.150;2023-08-30T00:50:29;17.27;;;5.32;;
71490;SDS011;59307;50.060;9.150;2023-08-30T00:52:54;17.43;;;5.50;;
71490;SDS011;59307;50.060;9.150;2023-08-30T00:55:19;7.67;;;4.20;;
71490;SDS011;59307;50.060;9.150;2023-08-30T00:57:45;8.17;;;4.93;;
71490;SDS011;59307;50.060;9.150;2023-08-30T01:00:10;9.20;;;4.27;;
71490;SDS011;59307;50.060;9.150;2023-08-30T01:02:35;10.13;;;4.37;;
71490;SDS011;59307;50.060;9.150;2023-08-30T01:05:02;12.40;;;4.43;;
71490;SDS011;59307;50.060;9.150;2023-08-30T01:07:27;11.50;;;4.28;;
71490;SDS011;59307;50.060;9.150;2023-08-30T01:09:52;17.33;;;4.40;;
71490;SDS011;59307;50.060;9.150;2023-08-30T01:12:24;12.90;;;4.30;;
71490;SDS011;59307;50.060;9.150;2023-08-30T01:14:54;24.58;;;4.28;;
71490;SDS011;59307;50.060;9.150;2023-08-30T01:17:20;8.65;;;3.70;;
71490;SDS011;59307;50.060;9.150;2023-08-30T01:22:15;12.25;;;3.83;;
71490;SDS011;59307;50.060;9.150;2023-08-30T01:24:44;15.17;;;3.70;;
71490;SDS011;59307;50.060;9.150;2023-08-30T01:27:11;15.15;;;3.72;;
71490;SDS011;59307;50.060;9.150;2023-08-30T01:29:37;6.35;;;3.85;;
71490;SDS011;59307;50.060;9.150;2023-08-30T01:32:03;7.07;;;3.90;;
71490;SDS011;59307;50.060;9.150;2023-08-30T01:34:29;9.63;;;3.63;;
71490;SDS011;59307;50.060;9.150;2023-08-30T01:36:55;7.53;;;4.45;;
71490;SDS011;59307;50.060;9.150;2023-08-30T01:39:20;9.37;;;4.03;;
71490;SDS011;59307;50.060;9.150;2023-08-30T01:41:46;6.85;;;3.90;;
71490;SDS011;59307;50.060;9.150;2023-08-30T01:44:12;7.75;;;3.78;;
71490;SDS011;59307;50.060;9.150;2023-08-30T01:46:37;10.83;;;3.57;;
71490;SDS011;59307;50.060;9.150;2023-08-30T01:49:03;10.52;;;3.90;;
71490;SDS011;59307;50.060;9.150;2023-08-30T01:51:30;12.97;;;3.53;;
71490;SDS011;59307;50.060;9.150;2023-08-30T01:53:55;24.90;;;4.30;;
71490;SDS011;59307;50.060;9.150;2023-08-30T01:56:21;20.58;;;3.80;;
71490;SDS011;59307;50.060;9.150;2023-08-30T01:58:47;24.00;;;4.13;;
71490;SDS011;59307;50.060;9.150;2023-08-30T02:01:12;29.63;;;4.10;;
71490;SDS011;59307;50.060;9.150;2023-08-30T02:03:37;19.33;;;4.10;;
71490;SDS011;59307;50.060;9.150;2023-08-30T02:06:04;19.13;;;3.73;;
71490;SDS011;59307;50.060;9.150;2023-08-30T02:08:38;21.45;;;4.20;;
71490;SDS011;59307;50.060;9.150;2023-08-30T02:11:07;30.75;;;4.13;;
71490;SDS011;59307;50.060;9.150;2023-08-30T02:13:32;33.87;;;4.23;;
71490;SDS011;59307;50.060;9.150;2023-08-30T02:15:59;46.65;;;4.15;;
71490;SDS011;59307;50.060;9.150;2023-08-30T02:18:25;11.15;;;3.25;;
71490;SDS011;59307;50.060;9.150;2023-08-30T02:20:51;10.87;;;3.60;;
71490;SDS011;59307;50.060;9.150;2023-08-30T02:23:16;11.33;;;3.47;;
71490;SDS011;59307;50.060;9.150;2023-08-30T02:25:41;6.97;;;3.80;;
71490;SDS011;59307;50.060;9.150;2023-08-30T02:28:06;9.70;;;3.90;;
71490;SDS011;59307;50.060;9.150;2023-08-30T02:30:31;6.27;;;3.33;;
71490;SDS011;59307;50.060;9.150;2023-08-30T02:32:57;6.53;;;3.27;;
71490;SDS011;59307;50.060;9.150;2023-08-30T02:35:22;7.30;;;3.97;;
71490;SDS011;59307;50.060;9.150;2023-08-30T02:37:47;6.50;;;3.60;;
71490;SDS011;59307;50.060;9.150;2023-08-30T02:40:12;7.13;;;3.87;;
71490;SDS011;59307;50.060;9.150;2023-08-30T02:42:37;9.30;;;4.33;;
71490;SDS011;59307;50.060;9.150;2023-08-30T02:45:02;7.17;;;3.63;;
71490;SDS011;59307;50.060;9.150;2023-08-30T02:47:28;8.33;;;3.57;;
71490;SDS011;59307;50.060;9.150;2023-08-30T02:49:53;11.57;;;4.10;;
71490;SDS011;59307;50.060;9.150;2023-08-30T02:52:18;29.20;;;4.33;;
71490;SDS011;59307;50.060;9.150;2023-08-30T02:54:43;19.63;;;4.43;;
71490;SDS011;59307;50.060;9.150;2023-08-30T02:57:08;10.43;;;4.00;;
71490;SDS011;59307;50.060;9.150;2023-08-30T02:59:34;16.50;;;4.10;;
71490;SDS011;59307;50.060;9.150;2023-08-30T03:01:59;14.50;;;3.60;;
71490;SDS011;59307;50.060;9.150;2023-08-30T03:04:24;13.67;;;4.30;;
71490;SDS011;59307;50.060;9.150;2023-08-30T03:06:49;19.47;;;3.87;;
71490;SDS011;59307;50.060;9.150;2023-08-30T03:09:15;40.50;;;4.13;;
71490;SDS011;59307;50.060;9.150;2023-08-30T03:11:40;33.43;;;3.73;;
71490;SDS011;59307;50.060;9.150;2023-08-30T03:14:05;17.50;;;4.10;;
71490;SDS011;59307;50.060;9.150;2023-08-30T03:16:30;11.73;;;4.20;;
71490;SDS011;59307;50.060;9.150;2023-08-30T03:18:55;16.03;;;4.33;;
71490;SDS011;59307;50.060;9.150;2023-08-30T03:21:21;31.37;;;4.80;;
71490;SDS011;59307;50.060;9.150;2023-08-30T03:23:46;40.90;;;3.97;;
71490;SDS011;59307;50.060;9.150;2023-08-30T03:26:12;53.17;;;4.10;;
71490;SDS011;59307;50.060;9.150;2023-08-30T03:28:37;26.07;;;3.90;;
71490;SDS011;59307;50.060;9.150;2023-08-30T03:31:10;16.38;;;4.10;;
71490;SDS011;59307;50.060;9.150;2023-08-30T03:33:36;37.50;;;4.53;;
71490;SDS011;59307;50.060;9.150;2023-08-30T03:36:01;15.55;;;4.53;;
71490;SDS011;59307;50.060;9.150;2023-08-30T03:38:26;12.20;;;4.40;;
71490;SDS011;59307;50.060;9.150;2023-08-30T03:40:54;7.40;;;3.80;;
71490;SDS011;59307;50.060;9.150;2023-08-30T03:43:20;24.80;;;4.40;;
71490;SDS011;59307;50.060;9.150;2023-08-30T03:45:45;19.20;;;3.75;;
71490;SDS011;59307;50.060;9.150;2023-08-30T03:48:11;14.03;;;4.40;;
71490;SDS011;59307;50.060;9.150;2023-08-30T03:50:36;14.13;;;4.33;;
71490;SDS011;59307;50.060;9.150;2023-08-30T03:53:01;11.07;;;3.97;;
71490;SDS011;59307;50.060;9.150;2023-08-30T03:55:26;8.25;;;4.18;;
71490;SDS011;59307;50.060;9.150;2023-08-30T03:57:52;7.87;;;3.63;;
71490;SDS011;59307;50.060;9.150;2023-08-30T04:00:17;9.40;;;4.00;;
71490;SDS011;59307;50.060;9.150;2023-08-30T04:02:42;12.40;;;3.73;;
71490;SDS011;59307;50.060;9.150;2023-08-30T04:05:09;8.87;;;3.73;;
71490;SDS011;59307;50.060;9.150;2023-08-30T04:07:35;6.67;;;3.90;;
71490;SDS011;59307;50.060;9.150;2023-08-30T04:10:00;9.23;;;3.85;;
71490;SDS011;59307;50.060;9.150;2023-08-30T04:12:27;7.60;;;4.10;;
71490;SDS011;59307;50.060;9.150;2023-08-30T04:14:53;8.77;;;4.32;;
71490;SDS011;59307;50.060;9.150;2023-08-30T04:17:18;10.30;;;3.90;;
71490;SDS011;59307;50.060;9.150;2023-08-30T04:19:43;10.73;;;4.30;;
71490;SDS011;59307;50.060;9.150;2023-08-30T04:22:09;12.83;;;4.33;;
71490;SDS011;59307;50.060;9.150;2023-08-30T04:24:34;9.37;;;4.60;;
71490;SDS011;59307;50.060;9.150;2023-08-30T04:26:59;13.63;;;4.23;;
71490;SDS011;59307;50.060;9.150;2023-08-30T04:29:24;8.80;;;3.97;;
71490;SDS011;59307;50.060;9.150;2023-08-30T04:31:49;7.57;;;4.30;;
71490;SDS011;59307;50.060;9.150;2023-08-30T04:34:14;7.20;;;3.97;;
71490;SDS011;59307;50.060;9.150;2023-08-30T04:36:41;7.78;;;4.30;;
71490;SDS011;59307;50.060;9.150;2023-08-30T04:39:06;7.20;;;4.03;;
71490;SDS011;59307;50.060;9.150;2023-08-30T04:41:31;8.90;;;4.70;;
71490;SDS011;59307;50.060;9.150;2023-08-30T04:43:58;9.50;;;5.38;;
71490;SDS011;59307;50.060;9.150;2023-08-30T04:46:23;7.07;;;3.97;;
71490;SDS011;59307;50.060;9.150;2023-08-30T04:48:48;9.80;;;4.10;;
71490;SDS011;59307;50.060;9.150;2023-08-30T04:51:13;9.77;;;4.83;;
71490;SDS011;59307;50.060;9.150;2023-08-30T04:53:39;8.75;;;4.20;;
71490;SDS011;59307;50.060;9.150;2023-08-30T04:56:12;7.27;;;3.90;;
71490;SDS011;59307;50.060;9.150;2023-08-30T04:58:38;8.45;;;4.13;;
71490;SDS011;59307;50.060;9.150;2023-08-30T05:01:04;7.55;;;3.92;;
71490;SDS011;59307;50.060;9.150;2023-08-30T05:03:29;7.53;;;4.07;;
71490;SDS011;59307;50.060;9.150;2023-08-30T05:05:55;8.53;;;4.40;;
71490;SDS011;59307;50.060;9.150;2023-08-30T05:08:20;7.73;;;4.47;;
71490;SDS011;59307;50.060;9.150;2023-08-30T05:10:45;8.67;;;4.70;;
71490;SDS011;59307;50.060;9.150;2023-08-30T05:13:11;6.70;;;3.63;;
71490;SDS011;59307;50.060;9.150;2023-08-30T05:15:36;7.47;;;3.93;;
71490;SDS011;59307;50.060;9.150;2023-08-30T05:18:01;6.70;;;3.80;;
71490;SDS011;59307;50.060;9.150;2023-08-30T05:20:27;7.38;;;4.30;;
71490;SDS011;59307;50.060;9.150;2023-08-30T05:22:52;7.47;;;4.20;;
71490;SDS011;59307;50.060;9.150;2023-08-30T05:25:17;7.73;;;4.13;;
71490;SDS011;59307;50.060;9.150;2023-08-30T05:27:42;7.23;;;4.00;;
71490;SDS011;59307;50.060;9.150;2023-08-30T05:30:08;8.00;;;4.50;;
71490;SDS011;59307;50.060;9.150;2023-08-30T05:32:33;8.73;;;4.80;;
71490;SDS011;59307;50.060;9.150;2023-08-30T05:34:59;6.83;;;4.17;;
71490;SDS011;59307;50.060;9.150;2023-08-30T05:37:24;12.23;;;4.80;;
71490;SDS011;59307;50.060;9.150;2023-08-30T05:39:49;9.07;;;5.15;;
71490;SDS011;59307;50.060;9.150;2023-08-30T05:42:15;9.90;;;5.07;;
71490;SDS011;59307;50.060;9.150;2023-08-30T05:44:40;13.77;;;5.67;;
71490;SDS011;59307;50.060;9.150;2023-08-30T05:47:05;10.07;;;5.50;;
71490;SDS011;59307;50.060;9.150;2023-08-30T05:49:30;9.40;;;4.77;;
71490;SDS011;59307;50.060;9.150;2023-08-30T05:51:55;9.90;;;5.27;;
71490;SDS011;59307;50.060;9.150;2023-08-30T05:54:20;10.30;;;5.33;;
71490;SDS011;59307;50.060;9.150;2023-08-30T05:56:46;10.83;;;5.83;;
71490;SDS011;59307;50.060;9.150;2023-08-30T05:59:11;9.77;;;5.13;;
71490;SDS011;59307;50.060;9.150;2023-08-30T06:01:36;8.50;;;5.13;;
71490;SDS011;59307;50.060;9.150;2023-08-30T06:04:01;11.40;;;5.33;;
71490;SDS011;59307;50.060;9.150;2023-08-30T06:06:29;9.57;;;5.47;;
71490;SDS011;59307;50.060;9.150;2023-08-30T06:08:54;9.07;;;5.03;;
71490;SDS011;59307;50.060;9.150;2023-08-30T06:11:19;10.33;;;5.30;;
71490;SDS011;59307;50.060;9.150;2023-08-30T06:13:44;10.60;;;5.17;;
71490;SDS011;59307;50.060;9.150;2023-08-30T06:16:10;13.10;;;5.60;;
71490;SDS011;59307;50.060;9.150;2023-08-30T06:18:35;11.03;;;6.10;;
71490;SDS011;59307;50.060;9.150;2023-08-30T06:21:02;11.77;;;6.70;;
71490;SDS011;59307;50.060;9.150;2023-08-30T06:23:29;9.52;;;5.93;;
71490;SDS011;59307;50.060;9.150;2023-08-30T06:25:57;11.90;;;7.00;;
71490;SDS011;59307;50.060;9.150;2023-08-30T06:28:22;13.77;;;6.47;;
71490;SDS011;59307;50.060;9.150;2023-08-30T06:30:48;10.23;;;6.20;;
71490;SDS011;59307;50.060;9.150;2023-08-30T06:33:13;10.23;;;6.00;;
71490;SDS011;59307;50.060;9.150;2023-08-30T06:35:38;13.70;;;6.33;;
71490;SDS011;59307;50.060;9.150;2023-08-30T06:38:04;10.05;;;6.50;;
71490;SDS011;59307;50.060;9.150;2023-08-30T06:40:29;11.37;;;6.37;;
71490;SDS011;59307;50.060;9.150;2023-08-30T06:42:54;9.63;;;6.50;;
71490;SDS011;59307;50.060;9.150;2023-08-30T06:45:19;11.47;;;6.40;;
71490;SDS011;59307;50.060;9.150;2023-08-30T06:47:45;10.93;;;6.30;;
71490;SDS011;59307;50.060;9.150;2023-08-30T06:50:10;10.40;;;6.97;;
71490;SDS011;59307;50.060;9.150;2023-08-30T06:52:35;11.60;;;6.60;;
71490;SDS011;59307;50.060;9.150;2023-08-30T06:55:01;10.88;;;5.70;;
71490;SDS011;59307;50.060;9.150;2023-08-30T06:57:27;8.43;;;5.60;;
71490;SDS011;59307;50.060;9.150;2023-08-30T06:59:52;9.87;;;5.40;;
71490;SDS011;59307;50.060;9.150;2023-08-30T07:02:17;7.17;;;5.03;;
71490;SDS011;59307;50.060;9.150;2023-08-30T07:04:42;10.07;;;5.40;;
71490;SDS011;59307;50.060;9.150;2023-08-30T07:07:07;9.03;;;5.70;;
71490;SDS011;59307;50.060;9.150;2023-08-30T07:09:33;9.02;;;5.53;;
71490;SDS011;59307;50.060;9.150;2023-08-30T07:11:58;9.13;;;5.23;;
71490;SDS011;59307;50.060;9.150;2023-08-30T07:14:24;8.73;;;5.57;;
71490;SDS011;59307;50.060;9.150;2023-08-30T07:16:49;10.87;;;5.67;;
71490;SDS011;59307;50.060;9.150;2023-08-30T07:19:15;10.10;;;6.20;;
71490;SDS011;59307;50.060;9.150;2023-08-30T07:21:41;10.17;;;5.83;;
71490;SDS011;59307;50.060;9.150;2023-08-30T07:24:06;12.02;;;6.22;;
71490;SDS011;59307;50.060;9.150;2023-08-30T07:26:32;10.70;;;5.53;;
71490;SDS011;59307;50.060;9.150;2023-08-30T07:28:57;8.63;;;5.30;;
71490;SDS011;59307;50.060;9.150;2023-08-30T07:31:22;10.57;;;5.80;;
71490;SDS011;59307;50.060;9.150;2023-08-30T07:33:47;7.73;;;5.57;;
71490;SDS011;59307;50.060;9.150;2023-08-30T07:36:12;8.73;;;5.30;;
71490;SDS011;59307;50.060;9.150;2023-08-30T07:38:38;10.87;;;5.80;;
71490;SDS011;59307;50.060;9.150;2023-08-30T07:41:03;8.03;;;5.50;;
71490;SDS011;59307;50.060;9.150;2023-08-30T07:43:28;7.88;;;5.35;;
71490;SDS011;59307;50.060;9.150;2023-08-30T07:45:54;7.17;;;5.07;;
71490;SDS011;59307;50.060;9.150;2023-08-30T07:48:19;9.77;;;5.10;;
71490;SDS011;59307;50.060;9.150;2023-08-30T07:50:44;7.67;;;4.60;;
71490;SDS011;59307;50.060;9.150;2023-08-30T07:53:09;7.83;;;5.33;;
71490;SDS011;59307;50.060;9.150;2023-08-30T07:55:35;8.47;;;5.23;;
71490;SDS011;59307;50.060;9.150;2023-08-30T07:58:00;7.17;;;4.87;;
71490;SDS011;59307;50.060;9.150;2023-08-30T08:00:25;8.67;;;4.93;;
71490;SDS011;59307;50.060;9.150;2023-08-30T08:02:50;8.77;;;5.00;;
71490;SDS011;59307;50.060;9.150;2023-08-30T08:05:16;7.33;;;4.70;;
71490;SDS011;59307;50.060;9.150;2023-08-30T08:07:42;7.85;;;4.47;;
71490;SDS011;59307;50.060;9.150;2023-08-30T08:10:07;7.17;;;4.93;;
71490;SDS011;59307;50.060;9.150;2023-08-30T08:12:33;7.43;;;4.82;;
71490;SDS011;59307;50.060;9.150;2023-08-30T08:14:58;10.67;;;6.90;;
71490;SDS011;59307;50.060;9.150;2023-08-30T08:17:23;11.63;;;7.73;;
71490;SDS011;59307;50.060;9.150;2023-08-30T08:19:48;10.03;;;7.00;;
71490;SDS011;59307;50.060;9.150;2023-08-30T08:22:14;10.00;;;6.50;;
71490;SDS011;59307;50.060;9.150;2023-08-30T08:24:39;9.37;;;6.40;;
71490;SDS011;59307;50.060;9.150;2023-08-30T08:27:04;10.63;;;7.13;;
71490;SDS011;59307;50.060;9.150;2023-08-30T08:29:30;10.65;;;6.68;;
71490;SDS011;59307;50.060;9.150;2023-08-30T08:31:56;13.00;;;6.40;;
71490;SDS011;59307;50.060;9.150;2023-08-30T08:34:21;11.03;;;6.37;;
71490;SDS011;59307;50.060;9.150;2023-08-30T08:36:46;8.03;;;5.77;;
71490;SDS011;59307;50.060;9.150;2023-08-30T08:39:11;8.47;;;5.83;;
71490;SDS011;59307;50.060;9.150;2023-08-30T08:41:42;9.85;;;6.10;;
71490;SDS011;59307;50.060;9.150;2023-08-30T08:44:08;8.80;;;5.72;;
71490;SDS011;59307;50.060;9.150;2023-08-30T08:46:37;9.20;;;6.03;;
71490;SDS011;59307;50.060;9.150;2023-08-30T08:51:36;9.90;;;5.55;;
71490;SDS011;59307;50.060;9.150;2023-08-30T08:54:04;10.27;;;5.45;;
71490;SDS011;59307;50.060;9.150;2023-08-30T08:56:31;10.00;;;5.70;;
71490;SDS011;59307;50.060;9.150;2023-08-30T08:58:57;8.50;;;5.75;;
71490;SDS011;59307;50.060;9.150;2023-08-30T09:01:23;7.50;;;4.70;;
71490;SDS011;59307;50.060;9.150;2023-08-30T09:03:49;8.00;;;5.57;;
71490;SDS011;59307;50.060;9.150;2023-08-30T09:06:15;9.13;;;5.18;;
71490;SDS011;59307;50.060;9.150;2023-08-30T09:08:40;7.07;;;4.73;;
71490;SDS011;59307;50.060;9.150;2023-08-30T09:11:05;8.23;;;5.17;;
71490;SDS011;59307;50.060;9.150;2023-08-30T09:13:30;7.57;;;4.97;;
71490;SDS011;59307;50.060;9.150;2023-08-30T09:15:56;8.95;;;5.55;;
71490;SDS011;59307;50.060;9.150;2023-08-30T09:18:22;7.97;;;4.83;;
71490;SDS011;59307;50.060;9.150;2023-08-30T09:20:52;9.68;;;5.63;;
71490;SDS011;59307;50.060;9.150;2023-08-30T09:23:21;9.70;;;5.77;;
71490;SDS011;59307;50.060;9.150;2023-08-30T09:25:46;10.05;;;6.07;;
71490;SDS011;59307;50.060;9.150;2023-08-30T09:28:11;11.13;;;5.50;;
71490;SDS011;59307;50.060;9.150;2023-08-30T09:30:37;8.37;;;5.60;;
71490;SDS011;59307;50.060;9.150;2023-08-30T09:33:04;10.32;;;5.43;;
71490;SDS011;59307;50.060;9.150;2023-08-30T09:35:30;7.60;;;4.97;;
71490;SDS011;59307;50.060;9.150;2023-08-30T09:37:55;7.78;;;5.30;;
71490;SDS011;59307;50.060;9.150;2023-08-30T09:40:20;8.07;;;5.60;;
71490;SDS011;59307;50.060;9.150;2023-08-30T09:42:46;8.93;;;5.20;;
71490;SDS011;59307;50.060;9.150;2023-08-30T09:45:19;7.05;;;5.15;;
71490;SDS011;59307;50.060;9.150;2023-08-30T09:47:48;7.88;;;5.15;;
71490;SDS011;59307;50.060;9.150;2023-08-30T09:50:13;9.30;;;5.68;;
71490;SDS011;59307;50.060;9.150;2023-08-30T09:52:41;7.77;;;5.63;;
71490;SDS011;59307;50.060;9.150;2023-08-30T09:55:07;10.00;;;6.27;;
71490;SDS011;59307;50.060;9.150;2023-08-30T09:57:32;8.23;;;5.03;;
71490;SDS011;59307;50.060;9.150;2023-08-30T09:59:57;9.27;;;5.33;;
71490;SDS011;59307;50.060;9.150;2023-08-30T10:02:24;8.55;;;5.60;;
71490;SDS011;59307;50.060;9.150;2023-08-30T10:04:50;8.27;;;5.50;;
71490;SDS011;59307;50.060;9.150;2023-08-30T10:07:15;8.80;;;5.37;;
71490;SDS011;59307;50.060;9.150;2023-08-30T10:09:42;7.53;;;5.10;;
71490;SDS011;59307;50.060;9.150;2023-08-30T10:12:07;7.30;;;5.10;;
71490;SDS011;59307;50.060;9.150;2023-08-30T10:14:33;8.77;;;5.20;;
71490;SDS011;59307;50.060;9.150;2023-08-30T10:17:01;7.50;;;5.23;;
71490;SDS011;59307;50.060;9.150;2023-08-30T10:19:28;7.18;;;4.57;;
71490;SDS011;59307;50.060;9.150;2023-08-30T10:22:03;7.77;;;5.10;;
71490;SDS011;59307;50.060;9.150;2023-08-30T10:24:29;7.55;;;4.88;;
71490;SDS011;59307;50.060;9.150;2023-08-30T10:26:55;8.75;;;5.10;;
71490;SDS011;59307;50.060;9.150;2023-08-30T10:29:21;8.70;;;5.13;;
71490;SDS011;59307;50.060;9.150;2023-08-30T10:31:48;7.28;;;5.10;;
71490;SDS011;59307;50.060;9.150;2023-08-30T10:34:16;8.30;;;4.80;;
71490;SDS011;59307;50.060;9.150;2023-08-30T10:36:42;8.23;;;4.82;;
71490;SDS011;59307;50.060;9.150;2023-08-30T10:39:11;8.20;;;5.23;;
71490;SDS011;59307;50.060;9.150;2023-08-30T10:41:36;7.75;;;5.45;;
71490;SDS011;59307;50.060;9.150;2023-08-30T10:44:02;7.23;;;4.90;;
71490;SDS011;59307;50.060;9.150;2023-08-30T10:46:32;7.32;;;5.00;;
71490;SDS011;59307;50.060;9.150;2023-08-30T10:49:08;8.48;;;5.03;;
71490;SDS011;59307;50.060;9.150;2023-08-30T10:51:35;8.38;;;4.50;;
71490;SDS011;59307;50.060;9.150;2023-08-30T10:54:09;6.30;;;4.13;;
71490;SDS011;59307;50.060;9.150;2023-08-30T10:56:34;7.28;;;4.72;;
71490;SDS011;59307;50.060;9.150;2023-08-30T10:59:01;9.10;;;4.60;;
71490;SDS011;59307;50.060;9.150;2023-08-30T11:01:27;6.50;;;4.70;;
71490;SDS011;59307;50.060;9.150;2023-08-30T11:03:52;6.30;;;4.20;;
71490;SDS011;59307;50.060;9.150;2023-08-30T11:06:17;7.50;;;4.40;;
71490;SDS011;59307;50.060;9.150;2023-08-30T11:08:43;7.83;;;3.97;;
71490;SDS011;59307;50.060;9.150;2023-08-30T11:11:09;5.80;;;3.70;;
71490;SDS011;59307;50.060;9.150;2023-08-30T11:13:35;4.53;;;3.28;;
71490;SDS011;59307;50.060;9.150;2023-08-30T11:16:01;5.50;;;3.30;;
71490;SDS011;59307;50.060;9.150;2023-08-30T11:18:28;5.00;;;3.38;;
71490;SDS011;59307;50.060;9.150;2023-08-30T11:20:57;5.83;;;3.10;;
71490;SDS011;59307;50.060;9.150;2023-08-30T11:23:23;4.60;;;2.90;;
71490;SDS011;59307;50.060;9.150;2023-08-30T11:25:51;3.23;;;2.17;;
71490;SDS011;59307;50.060;9.150;2023-08-30T11:28:26;4.13;;;2.65;;
71490;SDS011;59307;50.060;9.150;2023-08-30T11:30:54;5.70;;;3.20;;
71490;SDS011;59307;50.060;9.150;2023-08-30T11:33:20;4.38;;;2.80;;
71490;SDS011;59307;50.060;9.150;2023-08-30T11:35:45;3.60;;;2.50;;
71490;SDS011;59307;50.060;9.150;2023-08-30T11:38:13;4.35;;;2.40;;
71490;SDS011;59307;50.060;9.150;2023-08-30T11:40:38;4.70;;;2.65;;
71490;SDS011;59307;50.060;9.150;2023-08-30T11:43:03;4.30;;;2.80;;
71490;SDS011;59307;50.060;9.150;2023-08-30T11:45:31;5.33;;;2.73;;
71490;SDS011;59307;50.060;9.150;2023-08-30T11:47:57;5.50;;;2.97;;
71490;SDS011;59307;50.060;9.150;2023-08-30T11:50:23;4.00;;;3.00;;
71490;SDS011;59307;50.060;9.150;2023-08-30T11:52:48;4.93;;;2.90;;
71490;SDS011;59307;50.060;9.150;2023-08-30T11:55:15;5.53;;;3.10;;
71490;SDS011;59307;50.060;9.150;2023-08-30T11:57:42;3.60;;;2.60;;
71490;SDS011;59307;50.060;9.150;2023-08-30T12:00:09;6.65;;;3.38;;
71490;SDS011;59307;50.060;9.150;2023-08-30T12:02:34;5.22;;;2.90;;
71490;SDS011;59307;50.060;9.150;2023-08-30T12:05:00;4.20;;;2.72;;
71490;SDS011;59307;50.060;9.150;2023-08-30T12:07:26;4.53;;;2.70;;
71490;SDS011;59307;50.060;9.150;2023-08-30T12:09:51;4.30;;;2.57;;
71490;SDS011;59307;50.060;9.150;2023-08-30T12:12:16;4.63;;;2.43;;
71490;SDS011;59307;50.060;9.150;2023-08-30T12:14:42;4.63;;;2.70;;
71490;SDS011;59307;50.060;9.150;2023-08-30T12:17:08;5.05;;;2.60;;
71490;SDS011;59307;50.060;9.150;2023-08-30T12:19:33;4.55;;;2.95;;
71490;SDS011;59307;50.060;9.150;2023-08-30T12:22:05;5.37;;;3.17;;
71490;SDS011;59307;50.060;9.150;2023-08-30T12:24:41;6.32;;;3.25;;
71490;SDS011;59307;50.060;9.150;2023-08-30T12:27:06;4.10;;;3.30;;
71490;SDS011;59307;50.060;9.150;2023-08-30T12:29:31;4.33;;;3.00;;
71490;SDS011;59307;50.060;9.150;2023-08-30T12:31:56;4.90;;;3.10;;
71490;SDS011;59307;50.060;9.150;2023-08-30T12:34:22;3.30;;;2.70;;
71490;SDS011;59307;50.060;9.150;2023-08-30T12:36:47;5.10;;;3.03;;
71490;SDS011;59307;50.060;9.150;2023-08-30T12:39:12;3.93;;;2.50;;
71490;SDS011;59307;50.060;9.150;2023-08-30T12:41:38;4.25;;;2.80;;
71490;SDS011;59307;50.060;9.150;2023-08-30T12:44:04;3.55;;;2.60;;
71490;SDS011;59307;50.060;9.150;2023-08-30T12:46:29;3.83;;;2.60;;
71490;SDS011;59307;50.060;9.150;2023-08-30T12:48:54;4.47;;;2.70;;
71490;SDS011;59307;50.060;9.150;2023-08-30T12:51:19;3.87;;;2.70;;
71490;SDS011;59307;50.060;9.150;2023-08-30T12:53:45;5.93;;;2.87;;
71490;SDS011;59307;50.060;9.150;2023-08-30T12:56:10;5.53;;;3.00;;
71490;SDS011;59307;50.060;9.150;2023-08-30T12:58:35;5.00;;;2.13;;
71490;SDS011;59307;50.060;9.150;2023-08-30T13:01:00;4.13;;;2.20;;
71490;SDS011;59307;50.060;9.150;2023-08-30T13:03:25;4.73;;;2.50;;
71490;SDS011;59307;50.060;9.150;2023-08-30T13:05:50;4.80;;;2.80;;
71490;SDS011;59307;50.060;9.150;2023-08-30T13:08:15;4.53;;;2.80;;
71490;SDS011;59307;50.060;9.150;2023-08-30T13:10:41;7.10;;;2.47;;
71490;SDS011;59307;50.060;9.150;2023-08-30T13:13:06;5.20;;;2.40;;
71490;SDS011;59307;50.060;9.150;2023-08-30T13:15:31;3.80;;;2.10;;
71490;SDS011;59307;50.060;9.150;2023-08-30T13:17:56;4.00;;;2.30;;
71490;SDS011;59307;50.060;9.150;2023-08-30T13:20:21;3.23;;;2.10;;
71490;SDS011;59307;50.060;9.150;2023-08-30T13:22:47;4.43;;;2.27;;
71490;SDS011;59307;50.060;9.150;2023-08-30T13:25:12;4.20;;;2.37;;
71490;SDS011;59307;50.060;9.150;2023-08-30T13:27:37;3.87;;;2.10;;
71490;SDS011;59307;50.060;9.150;2023-08-30T13:30:02;3.63;;;2.03;;
71490;SDS011;59307;50.060;9.150;2023-08-30T13:32:28;4.43;;;2.17;;
71490;SDS011;59307;50.060;9.150;2023-08-30T13:34:53;3.23;;;2.10;;
71490;SDS011;59307;50.060;9.150;2023-08-30T13:37:18;4.00;;;2.00;;
71490;SDS011;59307;50.060;9.150;2023-08-30T13:39:43;3.50;;;2.37;;
71490;SDS011;59307;50.060;9.150;2023-08-30T13:42:09;2.67;;;1.93;;
71490;SDS011;59307;50.060;9.150;2023-08-30T13:44:34;4.78;;;2.35;;
71490;SDS011;59307;50.060;9.150;2023-08-30T13:47:02;3.55;;;2.30;;
71490;SDS011;59307;50.060;9.150;2023-08-30T13:49:27;5.20;;;2.40;;
71490;SDS011;59307;50.060;9.150;2023-08-30T13:51:52;3.60;;;2.27;;
71490;SDS011;59307;50.060;9.150;2023-08-30T13:54:18;3.10;;;2.10;;
71490;SDS011;59307;50.060;9.150;2023-08-30T13:56:43;3.63;;;2.33;;
71490;SDS011;59307;50.060;9.150;2023-08-30T13:59:08;3.57;;;2.20;;
71490;SDS011;59307;50.060;9.150;2023-08-30T14:01:33;4.83;;;2.30;;
71490;SDS011;59307;50.060;9.150;2023-08-30T14:04:00;4.28;;;2.50;;
71490;SDS011;59307;50.060;9.150;2023-08-30T14:06:25;4.73;;;2.20;;
71490;SDS011;59307;50.060;9.150;2023-08-30T14:08:50;2.57;;;2.10;;
71490;SDS011;59307;50.060;9.150;2023-08-30T14:11:15;3.23;;;2.37;;
71490;SDS011;59307;50.060;9.150;2023-08-30T14:13:41;5.00;;;2.23;;
71490;SDS011;59307;50.060;9.150;2023-08-30T14:16:06;5.50;;;2.30;;
71490;SDS011;59307;50.060;9.150;2023-08-30T14:18:31;5.43;;;2.60;;
71490;SDS011;59307;50.060;9.150;2023-08-30T14:20:57;3.27;;;2.27;;
71490;SDS011;59307;50.060;9.150;2023-08-30T14:23:23;4.03;;;2.60;;
71490;SDS011;59307;50.060;9.150;2023-08-30T14:25:58;4.28;;;2.38;;
71490;SDS011;59307;50.060;9.150;2023-08-30T14:28:24;4.53;;;2.60;;
71490;SDS011;59307;50.060;9.150;2023-08-30T14:30:50;5.88;;;2.55;;
71490;SDS011;59307;50.060;9.150;2023-08-30T14:33:15;6.13;;;2.33;;
71490;SDS011;59307;50.060;9.150;2023-08-30T14:35:41;7.17;;;2.63;;
71490;SDS011;59307;50.060;9.150;2023-08-30T14:38:06;4.10;;;2.55;;
71490;SDS011;59307;50.060;9.150;2023-08-30T14:40:31;4.30;;;2.60;;